sensor_id;sensor_type;location;lat;lon;timestamp;pressure;altitude;pressure_sealevel;temperature;humidity
43707;BME280;61348;53.392;-6.248;2023-05-14T18:51:20;101394.16;;;15.10;55.09
43707;BME280;61348;53.392;-6.248;2023-05-14T18:53:46;101390.91;;;15.08;55.01
43707;BME280;61348;53.392;-6.248;2023-05-14T18:56:13;101390.44;;;15.06;54.93
43707;BME280;61348;53.392;-6.248;2023-05-14T18:58:40;101399.91;;;15.02;54.75
43707;BME280;61348;53.392;-6.248;2023-05-14T19:01:07;101394.97;;;14.95;54.66
43707;BME280;61348;53.392;-6.248;2023-05-14T19:03:33;101403.59;;;14.90;54.84
43707;BME280;61348;53.392;-6.248;2023-05-14T19:06:00;101397.47;;;14.85;54.91
43707;BME280;61348;53.392;-6.248;2023-05-14T19:08:27;101398.53;;;14.80;55.04
43707;BME280;61348;53.392;-6.248;2023-05-14T19:10:53;101402.13;;;14.81;54.99
43707;BME280;61348;53.392;-6.248;2023-05-14T19:13:20;101401.78;;;14.82;55.32
43707;BME280;61348;53.392;-6.248;2023-05-14T19:15:47;101412.94;;;14.82;55.45
43707;BME280;61348;53.392;-6.248;2023-05-14T19:18:13;101407.25;;;14.79;55.36
43707;BME280;61348;53.392;-6.248;2023-05-14T19:20:40;101407.63;;;14.77;55.37
43707;BME280;61348;53.392;-6.248;2023-05-14T19:23:07;101402.22;;;14.69;55.43
43707;BME280;61348;53.392;-6.248;2023-05-14T19:25:34;101420.34;;;14.62;55.42
43707;BME280;61348;53.392;-6.248;2023-05-14T19:28:01;101424.91;;;14.55;55.33
43707;BME280;61348;53.392;-6.248;2023-05-14T19:30:29;101437.47;;;14.49;55.36
43707;BME280;61348;53.392;-6.248;2023-05-14T19:32:57;101433.31;;;14.43;55.48
43707;BME280;61348;53.392;-6.248;2023-05-14T19:35:23;101434.63;;;14.33;55.67
43707;BME280;61348;53.392;-6.248;2023-05-14T19:37:51;101435.31;;;14.30;55.40
43707;BME280;61348;53.392;-6.248;2023-05-14T19:40:17;101442.84;;;14.30;55.42
43707;BME280;61348;53.392;-6.248;2023-05-14T19:42:44;101443.34;;;14.20;55.22
43707;BME280;61348;53.392;-6.248;2023-05-14T19:45:11;101447.56;;;14.14;55.42
43707;BME280;61348;53.392;-6.248;2023-05-14T19:47:37;101441.44;;;14.08;55.47
43707;BME280;61348;53.392;-6.248;2023-05-14T19:50:05;101446.44;;;14.02;55.34
43707;BME280;61348;53.392;-6.248;2023-05-14T19:52:37;101447.81;;;13.96;55.26
43707;BME280;61348;53.392;-6.248;2023-05-14T19:55:09;101449.22;;;13.90;55.11
43707;BME280;61348;53.392;-6.248;2023-05-14T19:57:40;101448.31;;;13.86;55.11
43707;BME280;61348;53.392;-6.248;2023-05-14T20:00:11;101446.09;;;13.80;54.95
43707;BME280;61348;53.392;-6.248;2023-05-14T20:02:38;101450.75;;;13.76;55.13
43707;BME280;61348;53.392;-6.248;2023-05-14T20:05:07;101447.97;;;13.76;55.33
43707;BME280;61348;53.392;-6.248;2023-05-14T20:07:37;101455.75;;;13.70;55.43
43707;BME280;61348;53.392;-6.248;2023-05-14T20:10:09;101459.91;;;13.64;55.52
43707;BME280;61348;53.392;-6.248;2023-05-14T20:12:39;101469.78;;;13.62;55.70
43707;BME280;61348;53.392;-6.248;2023-05-14T20:15:05;101466.53;;;13.60;55.88
43707;BME280;61348;53.392;-6.248;2023-05-14T20:17:33;101474.31;;;13.54;55.88
43707;BME280;61348;53.392;-6.248;2023-05-14T20:20:00;101473.84;;;13.52;56.00
43707;BME280;61348;53.392;-6.248;2023-05-14T20:22:27;101475.91;;;13.43;55.79
43707;BME280;61348;53.392;-6.248;2023-05-14T20:24:53;101484.72;;;13.33;55.78
43707;BME280;61348;53.392;-6.248;2023-05-14T20:27:20;101489.56;;;13.24;55.60
43707;BME280;61348;53.392;-6.248;2023-05-14T20:29:47;101492.69;;;13.10;55.58
43707;BME280;61348;53.392;-6.248;2023-05-14T20:32:16;101489.97;;;13.02;55.63
43707;BME280;61348;53.392;-6.248;2023-05-14T20:34:43;101485.31;;;12.94;55.88
43707;BME280;61348;53.392;-6.248;2023-05-14T20:37:10;101494.88;;;12.84;55.88
43707;BME280;61348;53.392;-6.248;2023-05-14T20:39:38;101495.66;;;12.72;55.90
43707;BME280;61348;53.392;-6.248;2023-05-14T20:42:05;101499.78;;;12.66;55.84
43707;BME280;61348;53.392;-6.248;2023-05-14T20:44:32;101491.00;;;12.64;55.96
43707;BME280;61348;53.392;-6.248;2023-05-14T20:46:58;101497.22;;;12.61;56.07
43707;BME280;61348;53.392;-6.248;2023-05-14T20:49:25;101488.13;;;12.52;56.27
43707;BME280;61348;53.392;-6.248;2023-05-14T20:51:52;101496.00;;;12.50;56.35
43707;BME280;61348;53.392;-6.248;2023-05-14T20:54:19;101499.81;;;12.46;56.50
43707;BME280;61348;53.392;-6.248;2023-05-14T20:56:46;101508.19;;;12.37;56.58
43707;BME280;61348;53.392;-6.248;2023-05-14T20:59:13;101498.44;;;12.31;56.84
43707;BME280;61348;53.392;-6.248;2023-05-14T21:01:40;101510.91;;;12.25;57.07
43707;BME280;61348;53.392;-6.248;2023-05-14T21:04:08;101509.50;;;12.19;57.20
43707;BME280;61348;53.392;-6.248;2023-05-14T21:06:35;101512.13;;;12.15;57.18
43707;BME280;61348;53.392;-6.248;2023-05-14T21:09:03;101516.38;;;12.13;57.54
43707;BME280;61348;53.392;-6.248;2023-05-14T21:11:29;101517.53;;;12.12;57.60
43707;BME280;61348;53.392;-6.248;2023-05-14T21:13:56;101520.31;;;12.12;57.63
43707;BME280;61348;53.392;-6.248;2023-05-14T21:16:23;101523.78;;;12.09;57.91
43707;BME280;61348;53.392;-6.248;2023-05-14T21:18:50;101522.78;;;12.05;58.18
43707;BME280;61348;53.392;-6.248;2023-05-14T21:21:17;101537.84;;;12.04;58.28
43707;BME280;61348;53.392;-6.248;2023-05-14T21:23:44;101540.00;;;11.98;58.38
43707;BME280;61348;53.392;-6.248;2023-05-14T21:26:11;101540.50;;;11.92;58.84
43707;BME280;61348;53.392;-6.248;2023-05-14T21:28:38;101539.09;;;11.86;58.81
43707;BME280;61348;53.392;-6.248;2023-05-14T21:31:05;101550.84;;;11.83;59.07
43707;BME280;61348;53.392;-6.248;2023-05-14T21:33:32;101547.09;;;11.79;59.34
43707;BME280;61348;53.392;-6.248;2023-05-14T21:35:59;101555.78;;;11.77;59.16
43707;BME280;61348;53.392;-6.248;2023-05-14T21:38:25;101559.56;;;11.73;59.59
43707;BME280;61348;53.392;-6.248;2023-05-14T21:40:52;101555.16;;;11.72;59.95
43707;BME280;61348;53.392;-6.248;2023-05-14T21:43:19;101546.97;;;11.67;60.03
43707;BME280;61348;53.392;-6.248;2023-05-14T21:45:46;101559.41;;;11.60;60.03
43707;BME280;61348;53.392;-6.248;2023-05-14T21:48:13;101567.25;;;11.58;60.36
43707;BME280;61348;53.392;-6.248;2023-05-14T21:50:40;101569.03;;;11.54;60.45
43707;BME280;61348;53.392;-6.248;2023-05-14T21:53:06;101569.88;;;11.46;60.42
43707;BME280;61348;53.392;-6.248;2023-05-14T21:55:33;101570.06;;;11.41;60.71
43707;BME280;61348;53.392;-6.248;2023-05-14T21:58:00;101570.75;;;11.38;60.70
43707;BME280;61348;53.392;-6.248;2023-05-14T22:00:28;101570.09;;;11.33;60.95
43707;BME280;61348;53.392;-6.248;2023-05-14T22:02:54;101572.72;;;11.29;61.10
43707;BME280;61348;53.392;-6.248;2023-05-14T22:05:22;101572.56;;;11.26;60.98
43707;BME280;61348;53.392;-6.248;2023-05-14T22:07:49;101575.19;;;11.22;61.21
43707;BME280;61348;53.392;-6.248;2023-05-14T22:10:17;101573.72;;;11.16;61.03
43707;BME280;61348;53.392;-6.248;2023-05-14T22:12:44;101576.00;;;11.14;60.60
43707;BME280;61348;53.392;-6.248;2023-05-14T22:15:11;101569.47;;;11.10;60.99
43707;BME280;61348;53.392;-6.248;2023-05-14T22:17:38;101570.78;;;11.04;60.90
43707;BME280;61348;53.392;-6.248;2023-05-14T22:20:05;101574.38;;;11.05;61.07
43707;BME280;61348;53.392;-6.248;2023-05-14T22:22:32;101580.91;;;11.00;61.09
43707;BME280;61348;53.392;-6.248;2023-05-14T22:24:59;101585.16;;;10.97;60.98
43707;BME280;61348;53.392;-6.248;2023-05-14T22:27:26;101583.84;;;10.95;60.97
43707;BME280;61348;53.392;-6.248;2023-05-14T22:29:53;101588.41;;;10.91;61.07
43707;BME280;61348;53.392;-6.248;2023-05-14T22:32:20;101589.88;;;10.88;61.05
43707;BME280;61348;53.392;-6.248;2023-05-14T22:34:47;101588.56;;;10.86;61.12
43707;BME280;61348;53.392;-6.248;2023-05-14T22:37:14;101583.19;;;10.81;61.09
43707;BME280;61348;53.392;-6.248;2023-05-14T22:39:42;101593.97;;;10.74;61.45
43707;BME280;61348;53.392;-6.248;2023-05-14T22:42:09;101583.53;;;10.71;61.50
43707;BME280;61348;53.392;-6.248;2023-05-14T22:44:36;101590.19;;;10.70;61.34
43707;BME280;61348;53.392;-6.248;2023-05-14T22:47:03;101601.44;;;10.65;61.58
43707;BME280;61348;53.392;-6.248;2023-05-14T22:49:33;101589.22;;;10.57;61.74
43707;BME280;61348;53.392;-6.248;2023-05-14T22:52:00;101589.72;;;10.51;62.18
43707;BME280;61348;53.392;-6.248;2023-05-14T22:54:26;101600.63;;;10.47;62.02
43707;BME280;61348;53.392;-6.248;2023-05-14T22:56:53;101592.66;;;10.46;62.23
43707;BME280;61348;53.392;-6.248;2023-05-14T22:59:20;101597.38;;;10.45;62.24
43707;BME280;61348;53.392;-6.248;2023-05-14T23:01:49;101597.19;;;10.42;62.44
43707;BME280;61348;53.392;-6.248;2023-05-14T23:04:16;101599.47;;;10.39;62.57
43707;BME280;61348;53.392;-6.248;2023-05-14T23:06:43;101591.00;;;10.36;62.82
43707;BME280;61348;53.392;-6.248;2023-05-14T23:09:09;101587.06;;;10.28;62.85
43707;BME280;61348;53.392;-6.248;2023-05-14T23:11:36;101599.59;;;10.26;63.04
43707;BME280;61348;53.392;-6.248;2023-05-14T23:14:03;101591.63;;;10.24;62.96
43707;BME280;61348;53.392;-6.248;2023-05-14T23:16:30;101592.28;;;10.21;63.32
43707;BME280;61348;53.392;-6.248;2023-05-14T23:18:57;101601.72;;;10.20;63.35
43707;BME280;61348;53.392;-6.248;2023-05-14T23:21:24;101609.34;;;10.15;63.47
43707;BME280;61348;53.392;-6.248;2023-05-14T23:23:51;101610.81;;;10.12;63.54
43707;BME280;61348;53.392;-6.248;2023-05-14T23:26:17;101604.41;;;10.12;63.65
43707;BME280;61348;53.392;-6.248;2023-05-14T23:28:44;101605.75;;;10.14;63.73
43707;BME280;61348;53.392;-6.248;2023-05-14T23:31:12;101613.03;;;10.10;63.86
43707;BME280;61348;53.392;-6.248;2023-05-14T23:33:39;101600.19;;;10.06;63.96
43707;BME280;61348;53.392;-6.248;2023-05-14T23:36:06;101609.28;;;10.06;63.80
43707;BME280;61348;53.392;-6.248;2023-05-14T23:38:33;101611.06;;;10.02;63.94
43707;BME280;61348;53.392;-6.248;2023-05-14T23:41:00;101603.75;;;9.98;64.00
43707;BME280;61348;53.392;-6.248;2023-05-14T23:43:27;101604.69;;;9.93;64.05
43707;BME280;61348;53.392;-6.248;2023-05-14T23:45:54;101605.81;;;9.92;64.16
43707;BME280;61348;53.392;-6.248;2023-05-14T23:48:21;101603.06;;;9.92;64.03
43707;BME280;61348;53.392;-6.248;2023-05-14T23:50:47;101605.31;;;9.90;64.30
43707;BME280;61348;53.392;-6.248;2023-05-14T23:53:14;101615.88;;;9.88;64.48
43707;BME280;61348;53.392;-6.248;2023-05-14T23:55:41;101614.28;;;9.87;64.49
43707;BME280;61348;53.392;-6.248;2023-05-14T23:58:08;101603.84;;;9.84;64.57
